createdAt,value
2022-10-06T00:00:38.901Z,428.9
2022-10-06T00:01:40.820Z,428.3
2022-10-06T00:02:43.020Z,428.6
2022-10-06T00:03:44.744Z,428.2
2022-10-06T00:04:46.316Z,428.2
2022-10-06T00:05:47.920Z,428.2
2022-10-06T00:06:49.462Z,428.5
2022-10-06T00:07:51.020Z,428.1
2022-10-06T00:08:52.556Z,428.4
2022-10-06T00:09:54.145Z,428.4
2022-10-06T00:10:55.705Z,428.7
2022-10-06T00:11:57.249Z,428.6
2022-10-06T00:12:58.791Z,428.1
2022-10-06T00:14:00.441Z,428.7
2022-10-06T00:15:02.031Z,428.6
2022-10-06T00:16:03.783Z,428.9
2022-10-06T00:17:05.371Z,428.8
2022-10-06T00:18:06.998Z,429.1
2022-10-06T00:19:08.558Z,429.2
2022-10-06T00:20:10.101Z,429.3
2022-10-06T00:21:11.643Z,429.2
2022-10-06T00:22:13.222Z,429.2
2022-10-06T00:23:14.785Z,429.2
2022-10-06T00:24:16.341Z,429.2
2022-10-06T00:25:17.898Z,429.3
2022-10-06T00:26:19.423Z,429.2
2022-10-06T00:27:21.024Z,429
2022-10-06T00:28:23.012Z,429.3
2022-10-06T00:29:24.712Z,428.8
2022-10-06T00:30:26.282Z,429
2022-10-06T00:31:28.107Z,429.3
2022-10-06T00:32:29.736Z,429.3
2022-10-06T00:33:31.305Z,429.6
2022-10-06T00:34:32.848Z,429.6
2022-10-06T00:35:34.414Z,429.3
2022-10-06T00:36:36.013Z,429.4
2022-10-06T00:37:37.542Z,429.6
2022-10-06T00:38:39.082Z,429.8
2022-10-06T00:39:40.618Z,429.7
2022-10-06T00:40:42.249Z,430.1
2022-10-06T00:41:43.781Z,429.8
2022-10-06T00:42:45.325Z,429.9
2022-10-06T00:43:46.873Z,430.1
2022-10-06T00:44:48.670Z,430
2022-10-06T00:45:50.643Z,430.1
2022-10-06T00:46:52.204Z,429.7
2022-10-06T00:47:53.759Z,430
2022-10-06T00:48:55.309Z,430.3
2022-10-06T00:49:56.886Z,430.4
2022-10-06T00:50:58.498Z,430.4
2022-10-06T00:52:00.038Z,430.7
2022-10-06T00:53:01.571Z,430.8
2022-10-06T00:54:03.119Z,431
2022-10-06T00:55:04.725Z,431
2022-10-06T00:56:06.318Z,431.3
2022-10-06T00:57:07.872Z,431.7
2022-10-06T00:58:09.418Z,431.4
2022-10-06T00:59:10.949Z,431.9
2022-10-06T01:00:12.655Z,431.8
2022-10-06T01:01:14.482Z,431.8
2022-10-06T01:02:16.596Z,431.6
2022-10-06T01:03:18.143Z,431.6
2022-10-06T01:04:19.699Z,432.1
2022-10-06T01:05:21.240Z,432.2
2022-10-06T01:06:22.770Z,432.2
2022-10-06T01:07:24.362Z,432.4
2022-10-06T01:08:28.294Z,432.1
2022-10-06T01:09:30.100Z,432.6
2022-10-06T01:10:31.660Z,432.7
2022-10-06T01:11:33.222Z,432.4
2022-10-06T01:12:34.833Z,432.8
2022-10-06T01:13:36.398Z,433.1
2022-10-06T01:14:37.959Z,432.9
2022-10-06T01:15:39.838Z,433
2022-10-06T01:16:41.417Z,433.5
2022-10-06T01:17:42.998Z,433.9
2022-10-06T01:18:44.559Z,434
2022-10-06T01:19:46.096Z,434.1
2022-10-06T01:20:47.637Z,434.6
2022-10-06T01:21:49.215Z,434.5
2022-10-06T01:22:50.753Z,434.6
2022-10-06T01:23:52.290Z,434.8
2022-10-06T01:24:53.893Z,434.7
2022-10-06T01:25:55.476Z,434.8
2022-10-06T01:26:57.093Z,434.6
2022-10-06T01:27:58.994Z,434.7
2022-10-06T01:29:00.667Z,434.5
2022-10-06T01:30:02.235Z,434.6
2022-10-06T01:31:04.501Z,434.5
2022-10-06T01:32:06.176Z,434.4
2022-10-06T01:33:07.729Z,434.6
2022-10-06T01:34:09.277Z,434.8
2022-10-06T01:35:10.865Z,434.6
2022-10-06T01:36:12.448Z,434.7
2022-10-06T01:37:14.098Z,434.8
2022-10-06T01:38:15.640Z,434.5
2022-10-06T01:39:17.237Z,434.9
2022-10-06T01:40:18.751Z,434.5
2022-10-06T01:41:20.354Z,434.6
2022-10-06T01:42:21.908Z,434.7
2022-10-06T01:43:23.498Z,434.7
2022-10-06T01:44:25.102Z,435
2022-10-06T01:45:26.645Z,435.2
2022-10-06T01:46:28.593Z,435.1
2022-10-06T01:47:30.166Z,435.2
2022-10-06T01:48:33.363Z,435.1
2022-10-06T01:49:34.980Z,434.9
2022-10-06T01:50:36.518Z,434.9
2022-10-06T01:51:38.093Z,434.8
2022-10-06T01:52:39.633Z,434.8
2022-10-06T01:53:41.207Z,434.7
2022-10-06T01:54:42.797Z,434.4
2022-10-06T01:55:44.358Z,434.4
2022-10-06T01:56:45.907Z,434.4
2022-10-06T01:57:47.475Z,434.7
2022-10-06T01:58:49.027Z,434.7
2022-10-06T01:59:55.465Z,434.6
2022-10-06T02:00:57.063Z,434.5
2022-10-06T02:01:59.021Z,434.4
2022-10-06T02:03:00.710Z,434.2
2022-10-06T02:04:02.619Z,434.5
2022-10-06T02:05:04.219Z,434.5
2022-10-06T02:06:06.260Z,434.5
2022-10-06T02:07:07.855Z,434.7
2022-10-06T02:08:09.394Z,434.6
2022-10-06T02:09:11.035Z,434.5
2022-10-06T02:10:12.581Z,434.4
2022-10-06T02:11:14.120Z,434.4
2022-10-06T02:12:15.702Z,434.2
2022-10-06T02:13:17.251Z,434
2022-10-06T02:14:18.862Z,434
2022-10-06T02:15:20.409Z,434
2022-10-06T02:16:22.198Z,433.8
2022-10-06T02:17:23.825Z,433.5
2022-10-06T02:18:27.863Z,433.9
2022-10-06T02:19:29.523Z,433.8
2022-10-06T02:20:31.107Z,433.9
2022-10-06T02:21:32.702Z,433.7
2022-10-06T02:22:34.267Z,434.2
2022-10-06T02:23:35.806Z,433.7
2022-10-06T02:24:37.353Z,433.8
2022-10-06T02:25:39.140Z,433.8
2022-10-06T02:26:40.718Z,434.4
2022-10-06T02:27:42.335Z,434.3
2022-10-06T02:28:44.234Z,434.2
2022-10-06T02:29:45.800Z,434.4
2022-10-06T02:30:50.286Z,434.4
2022-10-06T02:31:51.895Z,434.7
2022-10-06T02:32:53.615Z,435
2022-10-06T02:33:55.191Z,434.7
2022-10-06T02:34:56.754Z,434.8
2022-10-06T02:35:58.326Z,435
2022-10-06T02:36:59.879Z,435.1
2022-10-06T02:38:01.589Z,434.9
2022-10-06T02:39:03.120Z,434.7
2022-10-06T02:40:04.752Z,434.5
2022-10-06T02:41:06.294Z,434
2022-10-06T02:42:07.878Z,434.2
2022-10-06T02:43:09.420Z,434.2
2022-10-06T02:44:10.968Z,434.5
2022-10-06T02:45:12.554Z,434.6
2022-10-06T02:46:14.514Z,434.3
2022-10-06T02:47:16.083Z,434.3
2022-10-06T02:48:17.850Z,434.2
2022-10-06T02:49:19.491Z,434.3
2022-10-06T02:50:21.076Z,434.2
2022-10-06T02:51:22.632Z,434
2022-10-06T02:52:24.166Z,434.3
2022-10-06T02:53:25.697Z,434.2
2022-10-06T02:54:27.301Z,434.3
2022-10-06T02:55:28.866Z,434.2
2022-10-06T02:56:30.416Z,434.1
2022-10-06T02:57:31.967Z,434.6
2022-10-06T02:58:33.567Z,434.4
2022-10-06T02:59:35.139Z,434.3
2022-10-06T03:00:36.680Z,433.9
2022-10-06T03:01:38.920Z,433.9
2022-10-06T03:02:41.366Z,433.8
2022-10-06T03:03:43.073Z,433.6
2022-10-06T03:04:44.696Z,433.5
2022-10-06T03:05:46.239Z,433.6
2022-10-06T03:06:47.804Z,433.9
2022-10-06T03:07:49.336Z,433.6
2022-10-06T03:08:50.895Z,433.9
2022-10-06T03:09:52.435Z,434
2022-10-06T03:10:53.982Z,433.9
2022-10-06T03:11:55.591Z,433.6
2022-10-06T03:12:57.153Z,433.8
2022-10-06T03:13:58.776Z,433.7
2022-10-06T03:15:00.317Z,434
2022-10-06T03:16:02.116Z,433.7
2022-10-06T03:17:03.755Z,434.1
2022-10-06T03:18:05.311Z,433.9
2022-10-06T03:19:07.070Z,433.9
2022-10-06T03:20:08.649Z,434
2022-10-06T03:21:10.197Z,434.3
2022-10-06T03:22:11.772Z,433.8
2022-10-06T03:23:14.250Z,433.9
2022-10-06T03:24:15.841Z,433.8
2022-10-06T03:25:17.437Z,433.9
2022-10-06T03:26:19.073Z,433.9
2022-10-06T03:27:20.617Z,433.6
2022-10-06T03:28:22.432Z,433.8
2022-10-06T03:29:24.178Z,434.2
2022-10-06T03:30:25.791Z,434
2022-10-06T03:31:27.949Z,434.2
2022-10-06T03:32:29.512Z,434.1
2022-10-06T03:33:31.100Z,434.3
2022-10-06T03:34:33.169Z,434.6
2022-10-06T03:35:34.843Z,434.9
2022-10-06T03:36:36.385Z,435
2022-10-06T03:37:37.928Z,435.3
2022-10-06T03:38:39.465Z,435.4
2022-10-06T03:39:41.093Z,435.6
2022-10-06T03:40:42.628Z,435.5
2022-10-06T03:41:44.174Z,435.5
2022-10-06T03:42:45.793Z,435.5
2022-10-06T03:43:47.344Z,435.7
2022-10-06T03:44:48.974Z,435.8
2022-10-06T03:45:50.517Z,435.8
2022-10-06T03:46:52.363Z,435.7
2022-10-06T03:47:53.932Z,436
2022-10-06T03:48:55.481Z,435.9
2022-10-06T03:49:57.166Z,435.9
2022-10-06T03:50:58.740Z,436
2022-10-06T03:52:00.288Z,436.3
2022-10-06T03:53:01.830Z,435.9
2022-10-06T03:54:03.373Z,436.5
2022-10-06T03:55:05.077Z,436.3
2022-10-06T03:56:06.649Z,436.7
2022-10-06T03:57:08.186Z,436.7
2022-10-06T03:58:09.694Z,436.6
2022-10-06T03:59:11.232Z,436.4
2022-10-06T04:00:12.876Z,436.3
2022-10-06T04:01:14.969Z,436.5
2022-10-06T04:02:16.945Z,436.4
2022-10-06T04:03:18.568Z,436.2
2022-10-06T04:04:20.125Z,436.5
2022-10-06T04:05:21.758Z,436.2
2022-10-06T04:06:23.331Z,436
2022-10-06T04:07:24.938Z,436.6
2022-10-06T04:08:28.756Z,436.3
2022-10-06T04:09:30.652Z,436.3
2022-10-06T04:10:32.234Z,436
2022-10-06T04:11:33.740Z,436.2
2022-10-06T04:12:35.350Z,436.4
2022-10-06T04:13:36.939Z,436.2
2022-10-06T04:14:38.473Z,436.3
2022-10-06T04:15:40.018Z,435.7
2022-10-06T04:16:41.951Z,435.7
2022-10-06T04:17:43.544Z,435.6
2022-10-06T04:18:45.092Z,435.4
2022-10-06T04:19:46.665Z,435.3
2022-10-06T04:20:48.304Z,435.3
2022-10-06T04:21:49.872Z,435.4
2022-10-06T04:22:51.470Z,435.4
2022-10-06T04:23:53.017Z,435.1
2022-10-06T04:24:54.555Z,435.4
2022-10-06T04:25:56.576Z,434.7
2022-10-06T04:26:58.089Z,435
2022-10-06T04:27:59.911Z,435.1
2022-10-06T04:29:01.529Z,435
2022-10-06T04:30:03.121Z,434.8
2022-10-06T04:31:04.730Z,435
2022-10-06T04:32:06.331Z,435.1
2022-10-06T04:33:07.879Z,434.8
2022-10-06T04:34:09.425Z,434.9
2022-10-06T04:35:11.057Z,434.8
2022-10-06T04:36:12.873Z,434.8
2022-10-06T04:37:14.473Z,434.9
2022-10-06T04:38:16.024Z,434.8
2022-10-06T04:39:17.606Z,434.5
2022-10-06T04:40:19.164Z,434.5
2022-10-06T04:41:20.736Z,434.4
2022-10-06T04:42:22.354Z,434.4
2022-10-06T04:43:23.908Z,434.6
2022-10-06T04:44:25.446Z,434.7
2022-10-06T04:45:27.364Z,434.3
2022-10-06T04:46:46.369Z,434.2
2022-10-06T04:47:47.952Z,434
2022-10-06T04:48:49.493Z,433.9
2022-10-06T04:49:51.066Z,434.2
2022-10-06T04:50:52.614Z,434.2
2022-10-06T04:51:54.415Z,433.7
2022-10-06T04:52:56.125Z,434.1
2022-10-06T04:53:57.658Z,433.8
2022-10-06T04:54:59.311Z,434
2022-10-06T04:56:00.857Z,433.8
2022-10-06T04:57:02.469Z,433.9
2022-10-06T04:58:04.006Z,433.8
2022-10-06T04:59:05.553Z,433.3
2022-10-06T05:00:15.491Z,433.6
2022-10-06T05:01:17.508Z,433.7
2022-10-06T05:02:19.815Z,433.5
2022-10-06T05:03:21.444Z,433.4
2022-10-06T05:04:22.977Z,433.3
2022-10-06T05:05:24.562Z,433.2
2022-10-06T05:06:26.176Z,433.1
2022-10-06T05:07:27.853Z,433.1
2022-10-06T05:08:30.821Z,433.1
2022-10-06T05:09:32.658Z,432.7
2022-10-06T05:10:34.212Z,432.7
2022-10-06T05:11:35.762Z,432.8
2022-10-06T05:12:37.444Z,432.8
2022-10-06T05:13:39.032Z,432.7
2022-10-06T05:14:40.641Z,432.6
2022-10-06T05:15:42.181Z,432.6
2022-10-06T05:16:44.205Z,432.4
2022-10-06T05:17:45.975Z,433.1
2022-10-06T05:18:47.525Z,432.6
2022-10-06T05:19:49.069Z,432.4
2022-10-06T05:20:50.606Z,432.7
2022-10-06T05:21:52.135Z,432.4
2022-10-06T05:22:53.821Z,432.8
2022-10-06T05:23:55.445Z,433.1
2022-10-06T05:24:56.999Z,432.6
2022-10-06T05:25:58.530Z,432.8
2022-10-06T05:27:02.595Z,432.6
2022-10-06T05:28:04.422Z,432.8
2022-10-06T05:29:06.084Z,432.7
2022-10-06T05:30:07.835Z,433.1
2022-10-06T05:31:09.393Z,432.8
2022-10-06T05:32:10.980Z,432.9
2022-10-06T05:33:12.536Z,432.6
2022-10-06T05:34:14.130Z,432.7
2022-10-06T05:35:15.743Z,432.6
2022-10-06T05:36:17.310Z,432.2
2022-10-06T05:37:18.928Z,432.5
2022-10-06T05:38:20.547Z,432.4
2022-10-06T05:39:22.243Z,432.3
2022-10-06T05:40:23.776Z,432.1
2022-10-06T05:41:25.325Z,432.7
2022-10-06T05:42:30.435Z,432.7
2022-10-06T05:43:32.081Z,432.6
2022-10-06T05:44:33.622Z,432.8
2022-10-06T05:45:35.374Z,432.7
2022-10-06T05:46:36.918Z,432.7
2022-10-06T05:47:38.529Z,432.6
2022-10-06T05:48:40.165Z,432.8
2022-10-06T05:49:41.711Z,432.6
2022-10-06T05:50:43.289Z,432.4
2022-10-06T05:51:44.829Z,432.5
2022-10-06T05:52:46.439Z,432.6
2022-10-06T05:53:48.052Z,432.5
2022-10-06T05:54:49.652Z,432.6
2022-10-06T05:55:51.208Z,432.4
2022-10-06T05:56:52.756Z,432.3
2022-10-06T05:57:54.361Z,432.5
2022-10-06T05:58:55.901Z,432.4
2022-10-06T05:59:57.437Z,432.7
2022-10-06T06:00:58.987Z,432.3
2022-10-06T06:02:01.516Z,432.4
2022-10-06T06:03:03.516Z,432.6
2022-10-06T06:04:05.178Z,432.4
2022-10-06T06:05:06.701Z,432.7
2022-10-06T06:06:08.234Z,432.4
2022-10-06T06:07:09.776Z,432.6
2022-10-06T06:08:11.335Z,432.6
2022-10-06T06:09:13.037Z,432.2
2022-10-06T06:10:14.779Z,432.2
2022-10-06T06:11:16.321Z,432
2022-10-06T06:12:17.854Z,432.1
2022-10-06T06:13:19.421Z,432.3
2022-10-06T06:14:21.029Z,432.5
2022-10-06T06:15:22.569Z,432.2
2022-10-06T06:16:24.409Z,432.3
2022-10-06T06:17:25.973Z,432.2
2022-10-06T06:18:29.758Z,432.1
2022-10-06T06:19:31.648Z,432.2
2022-10-06T06:20:33.273Z,432.3
2022-10-06T06:21:35.006Z,432.2
2022-10-06T06:22:36.550Z,431.9
2022-10-06T06:23:38.080Z,432.2
2022-10-06T06:24:39.726Z,431.9
2022-10-06T06:25:41.334Z,432.4
2022-10-06T06:26:42.884Z,432.4
2022-10-06T06:27:44.428Z,432.5
2022-10-06T06:28:46.373Z,432.4
2022-10-06T06:29:48.119Z,432
2022-10-06T06:30:50.067Z,432
2022-10-06T06:31:51.672Z,431.8
2022-10-06T06:32:53.215Z,431.8
2022-10-06T06:33:54.814Z,431.6
2022-10-06T06:34:56.383Z,432.3
2022-10-06T06:35:57.970Z,431.5
2022-10-06T06:37:15.471Z,431.3
2022-10-06T06:38:17.190Z,431.3
2022-10-06T06:39:18.750Z,431.4
2022-10-06T06:40:20.365Z,431.5
2022-10-06T06:41:21.925Z,431.9
2022-10-06T06:42:23.522Z,431.7
2022-10-06T06:43:25.077Z,431.5
2022-10-06T06:44:26.623Z,431.4
2022-10-06T06:45:28.166Z,431.4
2022-10-06T06:46:30.346Z,431.6
2022-10-06T06:47:32.088Z,431.6
2022-10-06T06:48:34.467Z,431.5
2022-10-06T06:49:36.017Z,431.6
2022-10-06T06:50:37.559Z,431.4
2022-10-06T06:51:39.147Z,431.5
2022-10-06T06:52:40.682Z,431.7
2022-10-06T06:53:42.261Z,431.6
2022-10-06T06:54:43.849Z,431.7
2022-10-06T06:55:45.481Z,432.1
2022-10-06T06:56:47.059Z,432.2
2022-10-06T06:57:48.599Z,431.7
2022-10-06T06:58:50.144Z,432.1
2022-10-06T06:59:51.724Z,432.2
2022-10-06T07:00:53.513Z,432.3
2022-10-06T07:01:55.462Z,432.2
2022-10-06T07:02:57.034Z,432.2
2022-10-06T07:03:59.753Z,432
2022-10-06T07:05:01.387Z,431.9
2022-10-06T07:06:02.947Z,432
2022-10-06T07:07:04.524Z,432.5
2022-10-06T07:08:06.086Z,432.5
2022-10-06T07:09:07.701Z,432.6
2022-10-06T07:10:09.245Z,432.5
2022-10-06T07:11:10.867Z,432.5
2022-10-06T07:12:12.503Z,432.5
2022-10-06T07:13:14.032Z,432.5
2022-10-06T07:14:15.592Z,432.2
2022-10-06T07:15:17.133Z,432.5
2022-10-06T07:16:19.015Z,432.5
2022-10-06T07:17:20.615Z,432.7
2022-10-06T07:18:22.187Z,433
2022-10-06T07:19:25.549Z,433
2022-10-06T07:20:27.080Z,432.9
2022-10-06T07:21:28.625Z,432.7
2022-10-06T07:22:30.241Z,432.7
2022-10-06T07:23:31.807Z,432.8
2022-10-06T07:24:33.350Z,432.9
2022-10-06T07:25:34.960Z,433.2
2022-10-06T07:26:36.608Z,433
2022-10-06T07:27:38.183Z,433.6
2022-10-06T07:28:40.098Z,433.6
2022-10-06T07:29:41.773Z,433.3
2022-10-06T07:30:43.357Z,433.6
2022-10-06T07:31:45.134Z,433.6
2022-10-06T07:32:46.771Z,434
2022-10-06T07:33:48.337Z,433.9
2022-10-06T07:34:51.263Z,433.8
2022-10-06T07:35:53.030Z,434.2
2022-10-06T07:36:54.639Z,433.9
2022-10-06T07:37:56.254Z,433.9
2022-10-06T07:38:57.849Z,433.8
2022-10-06T07:39:59.395Z,434
2022-10-06T07:41:21.025Z,434
2022-10-06T07:42:22.857Z,434.3
2022-10-06T07:43:24.485Z,434.1
2022-10-06T07:44:26.017Z,434.3
2022-10-06T07:45:27.582Z,434.4
2022-10-06T07:46:29.823Z,434.2
2022-10-06T07:47:31.388Z,434.1
2022-10-06T07:48:32.935Z,434.3
2022-10-06T07:49:34.615Z,434.1
2022-10-06T07:50:36.155Z,433.7
2022-10-06T07:51:37.731Z,433.7
2022-10-06T07:52:39.772Z,433.7
2022-10-06T07:53:41.478Z,433.9
2022-10-06T07:54:43.043Z,433.9
2022-10-06T07:55:44.615Z,434.2
2022-10-06T07:56:46.194Z,433.8
2022-10-06T07:57:47.879Z,434.1
2022-10-06T07:58:49.468Z,434.2
2022-10-06T07:59:51.074Z,434.2
2022-10-06T08:00:52.631Z,434.3
2022-10-06T08:01:54.301Z,433.9
2022-10-06T08:02:56.350Z,434
2022-10-06T08:03:57.977Z,434.1
2022-10-06T08:04:59.595Z,434
2022-10-06T08:06:01.147Z,434
2022-10-06T08:07:02.683Z,434
2022-10-06T08:08:04.246Z,434
2022-10-06T08:09:05.817Z,434.3
2022-10-06T08:10:07.405Z,434.4
2022-10-06T08:11:09.037Z,434.3
2022-10-06T08:12:10.849Z,434.5
2022-10-06T08:13:12.560Z,434.2
2022-10-06T08:14:14.148Z,434.4
2022-10-06T08:15:15.739Z,434
2022-10-06T08:16:17.925Z,433.9
2022-10-06T08:17:19.696Z,433.9
2022-10-06T08:18:47.651Z,434.1
2022-10-06T08:19:49.575Z,434.2
2022-10-06T08:20:51.211Z,434.2
2022-10-06T08:21:52.957Z,434.3
2022-10-06T08:22:54.554Z,434.5
2022-10-06T08:23:56.166Z,434.4
2022-10-06T08:25:10.228Z,434.2
2022-10-06T08:26:12.165Z,434.5
2022-10-06T08:27:13.754Z,434.6
2022-10-06T08:28:16.074Z,434.8
2022-10-06T08:29:17.720Z,434.6
2022-10-06T08:30:19.462Z,434.6
2022-10-06T08:31:21.820Z,434.6
2022-10-06T08:32:23.415Z,434.7
2022-10-06T08:33:24.981Z,434.9
2022-10-06T08:34:26.597Z,434.7
2022-10-06T08:35:28.122Z,434.7
2022-10-06T08:36:33.137Z,434.8
2022-10-06T08:37:34.691Z,435.1
2022-10-06T08:38:36.306Z,434.8
2022-10-06T08:39:37.856Z,435.2
2022-10-06T08:40:39.494Z,435
2022-10-06T08:41:41.091Z,435.6
2022-10-06T08:42:42.923Z,435.3
2022-10-06T08:43:44.680Z,435.3
2022-10-06T08:44:46.250Z,435.7
2022-10-06T08:45:48.156Z,435.9
2022-10-06T08:46:49.752Z,435.7
2022-10-06T08:47:51.392Z,435.9
2022-10-06T08:48:53.001Z,435.9
2022-10-06T08:49:56.368Z,436
2022-10-06T08:50:58.154Z,435.8
2022-10-06T08:51:59.691Z,436.1
2022-10-06T08:53:01.229Z,435.9
2022-10-06T08:54:02.780Z,436.2
2022-10-06T08:55:04.347Z,436.1
2022-10-06T08:56:05.991Z,436
2022-10-06T08:57:07.546Z,436
2022-10-06T08:59:10.966Z,436
2022-10-06T09:00:12.543Z,436.2
2022-10-06T09:01:14.706Z,436.2
2022-10-06T09:02:16.556Z,435.9
2022-10-06T09:03:18.154Z,435.8
2022-10-06T09:04:19.706Z,435.9
2022-10-06T09:05:21.277Z,435.7
2022-10-06T09:06:22.859Z,435.8
2022-10-06T09:07:24.443Z,435.7
2022-10-06T09:08:26.026Z,435.7
2022-10-06T09:09:30.266Z,436
2022-10-06T09:10:31.828Z,436
2022-10-06T09:11:33.371Z,435.9
2022-10-06T09:12:34.910Z,435.9
2022-10-06T09:13:36.520Z,436.1
2022-10-06T09:14:38.370Z,436.2
2022-10-06T09:15:40.337Z,436.2
2022-10-06T09:16:41.925Z,436.5
2022-10-06T09:17:43.506Z,436.5
2022-10-06T09:19:09.973Z,436.8
2022-10-06T09:20:11.577Z,436.6
2022-10-06T09:21:13.118Z,436.4
2022-10-06T09:22:14.791Z,436.5
2022-10-06T09:23:16.603Z,436.9
2022-10-06T09:24:18.447Z,436.6
2022-10-06T09:25:19.974Z,436.6
2022-10-06T09:26:21.523Z,437.2
2022-10-06T09:27:23.099Z,436.9
2022-10-06T09:28:24.839Z,436.9
2022-10-06T09:29:26.466Z,436.8
2022-10-06T09:30:28.100Z,437.2
2022-10-06T09:31:33.133Z,437.3
2022-10-06T09:32:34.776Z,437.7
2022-10-06T09:33:36.349Z,437.4
2022-10-06T09:34:37.954Z,437.5
2022-10-06T09:35:39.509Z,437.8
2022-10-06T09:36:41.064Z,437.8
2022-10-06T09:37:42.625Z,437.9
2022-10-06T09:38:44.290Z,437.8
2022-10-06T09:39:45.829Z,438.1
2022-10-06T09:40:47.385Z,438.3
2022-10-06T09:41:48.986Z,438.3
2022-10-06T09:42:50.537Z,438.4
2022-10-06T09:43:52.076Z,438.3
2022-10-06T09:44:55.365Z,438.7
2022-10-06T09:45:58.957Z,438.7
2022-10-06T09:47:00.656Z,438.7
2022-10-06T09:48:02.203Z,438.6
2022-10-06T09:49:03.817Z,439.1
2022-10-06T09:50:05.419Z,438.7
2022-10-06T09:51:06.951Z,438.9
2022-10-06T09:52:08.506Z,439.1
2022-10-06T09:53:10.106Z,439
2022-10-06T09:54:11.646Z,439.5
2022-10-06T09:55:13.203Z,439.7
2022-10-06T09:56:14.842Z,439.3
2022-10-06T09:57:16.448Z,439.3
2022-10-06T09:58:18.071Z,439.7
2022-10-06T09:59:19.627Z,439.7
2022-10-06T10:00:21.326Z,439.5
2022-10-06T10:01:23.462Z,439.7
2022-10-06T10:02:25.126Z,439.4
2022-10-06T10:03:26.742Z,439.8
2022-10-06T10:04:28.384Z,439.7
2022-10-06T10:05:30.018Z,440.2
2022-10-06T10:06:31.695Z,440.1
2022-10-06T10:07:33.269Z,440.3
2022-10-06T10:08:35.948Z,440.1
2022-10-06T10:09:37.617Z,440.3
2022-10-06T10:10:39.178Z,440.3
2022-10-06T10:11:40.717Z,440.5
2022-10-06T10:12:42.341Z,440.6
2022-10-06T10:13:43.961Z,440.6
2022-10-06T10:14:45.556Z,440.7
2022-10-06T10:15:47.291Z,440.9
2022-10-06T10:16:53.857Z,440.6
2022-10-06T10:17:55.519Z,441
2022-10-06T10:18:57.077Z,440.7
2022-10-06T10:20:00.101Z,441
2022-10-06T10:21:04.779Z,440.9
2022-10-06T10:22:06.363Z,440.9
2022-10-06T10:23:07.932Z,441
2022-10-06T10:24:09.475Z,441.4
2022-10-06T10:25:11.036Z,441.3
2022-10-06T10:26:12.646Z,441.5
2022-10-06T10:27:14.185Z,441.3
2022-10-06T10:28:16.056Z,441.8
2022-10-06T10:29:17.649Z,441.8
2022-10-06T10:30:19.207Z,441.5
2022-10-06T10:31:21.154Z,442
2022-10-06T10:32:23.059Z,442.2
2022-10-06T10:33:24.686Z,442.5
2022-10-06T10:34:26.260Z,442.4
2022-10-06T10:35:27.889Z,442.6
2022-10-06T10:36:29.467Z,442.8
2022-10-06T10:37:31.115Z,442.7
2022-10-06T10:38:32.692Z,443
2022-10-06T10:39:34.238Z,443.1
2022-10-06T10:40:35.904Z,442.9
2022-10-06T10:41:37.521Z,443.3
2022-10-06T10:42:39.095Z,443.5
2022-10-06T10:43:40.643Z,443.5
2022-10-06T10:44:42.206Z,443.6
2022-10-06T10:45:43.852Z,443.5
2022-10-06T10:46:45.618Z,443.8
2022-10-06T10:47:47.268Z,443.9
2022-10-06T10:48:48.857Z,444.1
2022-10-06T10:49:50.445Z,443.9
2022-10-06T10:50:51.980Z,444.2
2022-10-06T10:51:53.532Z,444.2
2022-10-06T10:52:55.127Z,444.3
2022-10-06T10:53:56.677Z,444.5
2022-10-06T10:55:00.472Z,444.9
2022-10-06T10:56:02.208Z,444.9
2022-10-06T10:57:03.815Z,445.3
2022-10-06T10:58:05.382Z,445
2022-10-06T10:59:07.012Z,445
2022-10-06T11:00:08.552Z,445.2
2022-10-06T11:01:10.368Z,445
2022-10-06T11:02:12.415Z,445.4
2022-10-06T11:03:14.215Z,445.2
2022-10-06T11:04:15.810Z,445.3
2022-10-06T11:05:17.374Z,445.1
2022-10-06T11:06:18.941Z,445.2
2022-10-06T11:07:20.492Z,445.4
2022-10-06T11:08:22.079Z,445
2022-10-06T11:09:23.645Z,445.5
2022-10-06T11:10:25.371Z,445.5
2022-10-06T11:11:27.069Z,445.4
2022-10-06T11:12:28.766Z,445.8
2022-10-06T11:13:30.363Z,445.9
2022-10-06T11:14:31.909Z,446
2022-10-06T11:15:33.482Z,446.6
2022-10-06T11:16:35.245Z,446.5
2022-10-06T11:17:36.889Z,446.7
2022-10-06T11:18:38.581Z,446.8
2022-10-06T11:19:40.300Z,447
2022-10-06T11:20:41.991Z,447.1
2022-10-06T11:21:43.567Z,447.3
2022-10-06T11:22:45.128Z,446.9
2022-10-06T11:23:46.740Z,447.2
2022-10-06T11:24:48.630Z,447.2
2022-10-06T11:25:50.179Z,447
2022-10-06T11:26:51.733Z,447.1
2022-10-06T11:27:53.294Z,447.5
2022-10-06T11:28:54.881Z,447.8
2022-10-06T11:29:58.088Z,447.9
2022-10-06T11:30:59.887Z,447.9
2022-10-06T11:32:01.642Z,448.3
2022-10-06T11:33:03.217Z,448.3
2022-10-06T11:34:04.846Z,448.1
2022-10-06T11:35:06.458Z,448.5
2022-10-06T11:36:08.012Z,448.7
2022-10-06T11:37:09.557Z,448.8
2022-10-06T11:38:11.118Z,449.2
2022-10-06T11:39:12.686Z,449.4
2022-10-06T11:40:14.329Z,448.8
2022-10-06T11:41:15.866Z,449.4
2022-10-06T11:42:17.669Z,449.3
2022-10-06T11:43:19.360Z,449.6
2022-10-06T11:44:20.897Z,449.4
2022-10-06T11:45:22.451Z,449.4
2022-10-06T11:46:24.580Z,449.4
2022-10-06T11:47:36.684Z,449.7
2022-10-06T11:48:38.238Z,449.7
2022-10-06T11:49:39.917Z,450
2022-10-06T11:50:41.490Z,450.3
2022-10-06T11:51:43.113Z,450.2
2022-10-06T11:52:44.658Z,450.5
2022-10-06T11:53:46.205Z,450.6
2022-10-06T11:54:47.763Z,450.7
2022-10-06T11:55:49.325Z,450.9
2022-10-06T11:56:50.923Z,450.6
2022-10-06T11:57:52.503Z,451.1
2022-10-06T11:58:54.045Z,450.6
2022-10-06T11:59:55.582Z,450.8
2022-10-06T12:00:57.142Z,450.5
2022-10-06T12:01:59.806Z,451
2022-10-06T12:03:02.274Z,451.1
2022-10-06T12:04:03.913Z,451.2
2022-10-06T12:05:57.440Z,451.5
2022-10-06T12:06:59.219Z,451.1
2022-10-06T12:08:00.872Z,451.6
2022-10-06T12:09:02.471Z,451.5
2022-10-06T12:10:04.015Z,451.7
2022-10-06T12:11:05.537Z,451.7
2022-10-06T12:12:07.165Z,452
2022-10-06T12:17:20.209Z,452.4
2022-10-06T12:18:21.904Z,452.4
2022-10-06T12:19:23.484Z,452.2
2022-10-06T12:20:25.047Z,452.7
2022-10-06T12:21:26.651Z,452.7
2022-10-06T12:22:28.293Z,452.6
2022-10-06T12:23:29.855Z,453
2022-10-06T12:24:31.477Z,453.1
2022-10-06T12:25:33.049Z,453.2
2022-10-06T12:26:34.593Z,453.6
2022-10-06T12:27:36.213Z,453.4
2022-10-06T12:28:38.113Z,453.5
2022-10-06T12:29:39.694Z,453.3
2022-10-06T12:30:41.573Z,453.6
2022-10-06T12:31:43.169Z,453.7
2022-10-06T12:32:44.769Z,453.7
2022-10-06T12:33:46.327Z,453.9
2022-10-06T12:34:47.872Z,453.9
2022-10-06T12:35:49.442Z,453.9
2022-10-06T12:36:51.068Z,453.7
2022-10-06T12:37:55.383Z,453.7
2022-10-06T12:38:56.915Z,454
2022-10-06T12:39:58.545Z,454.2
2022-10-06T12:41:00.099Z,454.2
2022-10-06T12:42:01.816Z,454.6
2022-10-06T12:43:03.439Z,454.4
2022-10-06T12:44:05.079Z,454.5
2022-10-06T12:45:06.634Z,454.8
2022-10-06T12:46:08.829Z,454.6
2022-10-06T12:47:10.413Z,454.6
2022-10-06T12:48:11.967Z,454.7
2022-10-06T12:49:16.425Z,455.1
2022-10-06T12:50:17.973Z,455.1
2022-10-06T12:51:19.853Z,454.9
2022-10-06T12:52:21.644Z,454.9
2022-10-06T12:53:23.250Z,454.9
2022-10-06T12:54:24.878Z,455
2022-10-06T12:55:26.478Z,455.2
2022-10-06T12:56:28.026Z,454.9
2022-10-06T12:57:29.745Z,455.1
2022-10-06T12:58:31.311Z,455.1
2022-10-06T12:59:32.963Z,455.2
2022-10-06T13:00:34.529Z,455.4
2022-10-06T13:01:36.686Z,455.5
2022-10-06T13:02:38.449Z,455.7
2022-10-06T13:03:40.037Z,456.1
2022-10-06T13:04:41.739Z,455.9
2022-10-06T13:05:43.281Z,456.2
2022-10-06T13:06:44.871Z,456.1
2022-10-06T13:07:46.469Z,456.3
2022-10-06T13:08:48.100Z,456
2022-10-06T13:09:49.641Z,456.1
2022-10-06T13:10:51.234Z,456.4
2022-10-06T13:11:52.807Z,456.8
2022-10-06T13:12:54.355Z,456.9
2022-10-06T13:13:55.979Z,457.1
2022-10-06T13:14:59.145Z,456.9
2022-10-06T13:16:01.054Z,456.8
2022-10-06T13:17:04.248Z,456.7
2022-10-06T13:18:05.852Z,456.6
2022-10-06T13:19:07.406Z,456.3
2022-10-06T13:20:08.958Z,456.7
2022-10-06T13:21:10.553Z,456.9
2022-10-06T13:22:12.129Z,456.9
2022-10-06T13:23:13.733Z,456.9
2022-10-06T13:24:15.299Z,456.9
2022-10-06T13:25:16.886Z,456.8
2022-10-06T13:26:18.421Z,456.7
2022-10-06T13:27:20.026Z,456.8
2022-10-06T13:28:22.120Z,456.4